sensor_id;sensor_type;location;lat;lon;timestamp;pressure;altitude;pressure_sealevel;temperature;humidity
50292;BME280;36190;54.980;73.388;2023-10-19T00:00:58;100218.06;;;7.78;69.58
50292;BME280;36190;54.980;73.388;2023-10-19T00:03:29;100219.06;;;7.77;69.75
50292;BME280;36190;54.980;73.388;2023-10-19T00:05:57;100222.03;;;7.74;70.10
50292;BME280;36190;54.980;73.388;2023-10-19T00:08:25;100225.97;;;7.69;70.30
50292;BME280;36190;54.980;73.388;2023-10-19T00:11:01;100232.41;;;7.67;70.37
50292;BME280;36190;54.980;73.388;2023-10-19T00:13:33;100231.75;;;7.65;70.60
50292;BME280;36190;54.980;73.388;2023-10-19T00:16:01;100230.22;;;7.62;70.83
50292;BME280;36190;54.980;73.388;2023-10-19T00:18:36;100237.84;;;7.57;71.14
50292;BME280;36190;54.980;73.388;2023-10-19T00:21:04;100247.94;;;7.53;71.57
50292;BME280;36190;54.980;73.388;2023-10-19T00:23:45;100239.44;;;7.50;71.72
50292;BME280;36190;54.980;73.388;2023-10-19T00:26:13;100247.69;;;7.47;71.58
50292;BME280;36190;54.980;73.388;2023-10-19T00:28:45;100252.44;;;7.43;71.98
50292;BME280;36190;54.980;73.388;2023-10-19T00:31:13;100247.47;;;7.40;72.17
50292;BME280;36190;54.980;73.388;2023-10-19T00:33:41;100254.75;;;7.38;72.10
50292;BME280;36190;54.980;73.388;2023-10-19T00:36:10;100258.66;;;7.34;72.07
50292;BME280;36190;54.980;73.388;2023-10-19T00:38:40;100239.47;;;7.22;72.21
50292;BME280;36190;54.980;73.388;2023-10-19T00:41:13;100250.47;;;7.27;72.53
50292;BME280;36190;54.980;73.388;2023-10-19T00:43:47;100258.75;;;7.24;72.47
50292;BME280;36190;54.980;73.388;2023-10-19T00:46:18;100266.31;;;7.19;72.60
50292;BME280;36190;54.980;73.388;2023-10-19T00:48:53;100266.63;;;7.15;73.01
50292;BME280;36190;54.980;73.388;2023-10-19T00:51:26;100275.84;;;7.11;73.07
50292;BME280;36190;54.980;73.388;2023-10-19T00:54:06;100271.13;;;7.05;73.13
50292;BME280;36190;54.980;73.388;2023-10-19T00:56:36;100268.78;;;7.02;73.39
50292;BME280;36190;54.980;73.388;2023-10-19T00:59:07;100272.72;;;6.98;73.50
50292;BME280;36190;54.980;73.388;2023-10-19T01:01:40;100268.00;;;6.92;73.70
50292;BME280;36190;54.980;73.388;2023-10-19T01:04:10;100277.91;;;6.90;73.88
50292;BME280;36190;54.980;73.388;2023-10-19T01:06:42;100277.38;;;6.86;74.17
50292;BME280;36190;54.980;73.388;2023-10-19T01:09:11;100282.13;;;6.82;73.99
50292;BME280;36190;54.980;73.388;2023-10-19T01:11:42;100288.59;;;6.80;74.15
50292;BME280;36190;54.980;73.388;2023-10-19T01:14:18;100291.38;;;6.78;74.28
50292;BME280;36190;54.980;73.388;2023-10-19T01:16:47;100293.63;;;6.73;74.55
50292;BME280;36190;54.980;73.388;2023-10-19T01:19:15;100303.41;;;6.72;74.53
50292;BME280;36190;54.980;73.388;2023-10-19T01:21:47;100300.19;;;6.69;74.77
50292;BME280;36190;54.980;73.388;2023-10-19T01:24:20;100312.63;;;6.68;74.97
50292;BME280;36190;54.980;73.388;2023-10-19T01:26:59;100310.81;;;6.69;75.03
50292;BME280;36190;54.980;73.388;2023-10-19T01:29:29;100317.91;;;6.68;75.14
50292;BME280;36190;54.980;73.388;2023-10-19T01:31:57;100330.19;;;6.69;74.97
50292;BME280;36190;54.980;73.388;2023-10-19T01:34:31;100328.38;;;6.70;74.85
50292;BME280;36190;54.980;73.388;2023-10-19T01:37:00;100337.88;;;6.72;75.22
50292;BME280;36190;54.980;73.388;2023-10-19T01:39:31;100339.69;;;6.72;75.13
50292;BME280;36190;54.980;73.388;2023-10-19T01:42:01;100342.19;;;6.73;75.03
50292;BME280;36190;54.980;73.388;2023-10-19T01:44:30;100362.00;;;6.69;75.23
50292;BME280;36190;54.980;73.388;2023-10-19T01:46:57;100357.84;;;6.67;75.26
50292;BME280;36190;54.980;73.388;2023-10-19T01:49:26;100355.59;;;6.62;75.44
50292;BME280;36190;54.980;73.388;2023-10-19T01:51:56;100357.56;;;6.60;75.60
50292;BME280;36190;54.980;73.388;2023-10-19T01:54:22;100365.13;;;6.55;75.69
50292;BME280;36190;54.980;73.388;2023-10-19T01:56:53;100379.63;;;6.51;75.96
50292;BME280;36190;54.980;73.388;2023-10-19T01:59:22;100371.81;;;6.49;75.96
50292;BME280;36190;54.980;73.388;2023-10-19T02:01:53;100372.97;;;6.46;76.11
50292;BME280;36190;54.980;73.388;2023-10-19T02:04:20;100380.34;;;6.43;76.38
50292;BME280;36190;54.980;73.388;2023-10-19T02:06:48;100390.25;;;6.41;76.54
50292;BME280;36190;54.980;73.388;2023-10-19T02:09:17;100388.88;;;6.37;76.72
50292;BME280;36190;54.980;73.388;2023-10-19T02:11:48;100396.13;;;6.35;76.67
50292;BME280;36190;54.980;73.388;2023-10-19T02:14:17;100410.34;;;6.33;76.82
50292;BME280;36190;54.980;73.388;2023-10-19T02:16:47;100398.47;;;6.28;76.75
50292;BME280;36190;54.980;73.388;2023-10-19T02:19:14;100418.31;;;6.33;76.85
50292;BME280;36190;54.980;73.388;2023-10-19T02:21:42;100425.41;;;6.33;76.89
50292;BME280;36190;54.980;73.388;2023-10-19T02:24:09;100427.63;;;6.38;76.84
50292;BME280;36190;54.980;73.388;2023-10-19T02:26:40;100436.28;;;6.40;77.04
50292;BME280;36190;54.980;73.388;2023-10-19T02:29:07;100431.53;;;6.43;76.83
50292;BME280;36190;54.980;73.388;2023-10-19T02:31:37;100440.03;;;6.47;76.55
50292;BME280;36190;54.980;73.388;2023-10-19T02:34:06;100442.69;;;6.47;76.83
50292;BME280;36190;54.980;73.388;2023-10-19T02:36:33;100442.00;;;6.45;76.61
50292;BME280;36190;54.980;73.388;2023-10-19T02:39:03;100441.44;;;6.51;76.67
50292;BME280;36190;54.980;73.388;2023-10-19T02:41:33;100453.16;;;6.58;76.56
50292;BME280;36190;54.980;73.388;2023-10-19T02:44:02;100465.03;;;6.64;76.35
50292;BME280;36190;54.980;73.388;2023-10-19T02:46:36;100457.47;;;6.69;76.10
50292;BME280;36190;54.980;73.388;2023-10-19T02:49:07;100457.47;;;6.69;75.81
50292;BME280;36190;54.980;73.388;2023-10-19T02:51:37;100471.56;;;6.70;75.76
50292;BME280;36190;54.980;73.388;2023-10-19T02:54:05;100473.66;;;6.66;75.95
50292;BME280;36190;54.980;73.388;2023-10-19T02:56:33;100483.16;;;6.69;75.71
50292;BME280;36190;54.980;73.388;2023-10-19T02:59:02;100487.47;;;6.70;75.70
50292;BME280;36190;54.980;73.388;2023-10-19T03:01:30;100488.16;;;6.72;75.66
50292;BME280;36190;54.980;73.388;2023-10-19T03:04:01;100494.88;;;6.76;75.31
50292;BME280;36190;54.980;73.388;2023-10-19T03:06:30;100492.78;;;6.80;75.16
50292;BME280;36190;54.980;73.388;2023-10-19T03:09:00;100494.84;;;6.86;74.94
50292;BME280;36190;54.980;73.388;2023-10-19T03:11:30;100500.44;;;6.93;74.68
50292;BME280;36190;54.980;73.388;2023-10-19T03:13:58;100508.53;;;7.01;74.23
50292;BME280;36190;54.980;73.388;2023-10-19T03:16:26;100514.41;;;7.05;73.76
50292;BME280;36190;54.980;73.388;2023-10-19T03:18:56;100513.28;;;7.07;73.37
50292;BME280;36190;54.980;73.388;2023-10-19T03:21:24;100504.34;;;7.08;73.09
50292;BME280;36190;54.980;73.388;2023-10-19T03:23:54;100521.94;;;7.09;72.22
50292;BME280;36190;54.980;73.388;2023-10-19T03:26:22;100527.66;;;7.05;71.78
50292;BME280;36190;54.980;73.388;2023-10-19T03:28:54;100525.44;;;7.00;71.96
50292;BME280;36190;54.980;73.388;2023-10-19T03:31:34;100542.03;;;7.02;71.77
50292;BME280;36190;54.980;73.388;2023-10-19T03:34:09;100538.09;;;7.06;71.27
50292;BME280;36190;54.980;73.388;2023-10-19T03:36:40;100537.84;;;7.09;71.09
50292;BME280;36190;54.980;73.388;2023-10-19T03:39:08;100549.84;;;7.13;70.63
50292;BME280;36190;54.980;73.388;2023-10-19T03:41:39;100561.00;;;7.17;70.59
50292;BME280;36190;54.980;73.388;2023-10-19T03:44:08;100556.38;;;7.19;69.91
50292;BME280;36190;54.980;73.388;2023-10-19T03:46:41;100553.72;;;7.29;70.10
50292;BME280;36190;54.980;73.388;2023-10-19T03:49:19;100565.47;;;7.26;69.31
50292;BME280;36190;54.980;73.388;2023-10-19T03:51:48;100573.59;;;7.25;69.00
50292;BME280;36190;54.980;73.388;2023-10-19T03:54:26;100561.97;;;7.26;68.74
50292;BME280;36190;54.980;73.388;2023-10-19T03:56:54;100560.00;;;7.28;68.40
50292;BME280;36190;54.980;73.388;2023-10-19T03:59:23;100566.88;;;7.31;68.46
50292;BME280;36190;54.980;73.388;2023-10-19T04:01:55;100574.41;;;7.35;68.17
50292;BME280;36190;54.980;73.388;2023-10-19T04:04:25;100566.13;;;7.38;67.75
50292;BME280;36190;54.980;73.388;2023-10-19T04:06:56;100579.53;;;7.47;67.70
50292;BME280;36190;54.980;73.388;2023-10-19T04:09:25;100577.44;;;7.50;66.78
50292;BME280;36190;54.980;73.388;2023-10-19T04:11:55;100577.97;;;7.54;66.72
50292;BME280;36190;54.980;73.388;2023-10-19T04:14:23;100575.31;;;7.54;66.53
50292;BME280;36190;54.980;73.388;2023-10-19T04:16:51;100593.63;;;7.57;66.21
50292;BME280;36190;54.980;73.388;2023-10-19T04:19:18;100597.13;;;7.57;65.91
50292;BME280;36190;54.980;73.388;2023-10-19T04:21:46;100601.19;;;7.62;65.67
50292;BME280;36190;54.980;73.388;2023-10-19T04:24:18;100606.06;;;7.66;65.33
50292;BME280;36190;54.980;73.388;2023-10-19T04:26:45;100605.75;;;7.69;65.29
50292;BME280;36190;54.980;73.388;2023-10-19T04:29:14;100613.28;;;7.74;65.01
50292;BME280;36190;54.980;73.388;2023-10-19T04:31:45;100606.16;;;7.75;64.55
50292;BME280;36190;54.980;73.388;2023-10-19T04:34:20;100607.53;;;7.79;64.55
50292;BME280;36190;54.980;73.388;2023-10-19T04:36:48;100614.25;;;7.83;63.96
50292;BME280;36190;54.980;73.388;2023-10-19T04:39:15;100617.28;;;7.88;63.71
50292;BME280;36190;54.980;73.388;2023-10-19T04:41:46;100618.56;;;7.94;63.15
50292;BME280;36190;54.980;73.388;2023-10-19T04:44:15;100621.34;;;7.92;62.89
50292;BME280;36190;54.980;73.388;2023-10-19T04:46:43;100625.91;;;8.00;62.67
50292;BME280;36190;54.980;73.388;2023-10-19T04:49:12;100626.19;;;8.07;62.39
50292;BME280;36190;54.980;73.388;2023-10-19T04:51:39;100637.06;;;8.14;62.03
50292;BME280;36190;54.980;73.388;2023-10-19T04:54:09;100638.59;;;8.16;61.18
50292;BME280;36190;54.980;73.388;2023-10-19T04:56:37;100646.28;;;8.19;61.34
50292;BME280;36190;54.980;73.388;2023-10-19T04:59:06;100643.88;;;8.26;61.04
50292;BME280;36190;54.980;73.388;2023-10-19T05:01:33;100642.00;;;8.36;60.84
50292;BME280;36190;54.980;73.388;2023-10-19T05:04:01;100642.94;;;8.45;60.27
50292;BME280;36190;54.980;73.388;2023-10-19T05:06:28;100653.69;;;8.53;59.87
50292;BME280;36190;54.980;73.388;2023-10-19T05:08:56;100659.28;;;8.60;58.83
50292;BME280;36190;54.980;73.388;2023-10-19T05:11:24;100655.63;;;8.61;58.08
50292;BME280;36190;54.980;73.388;2023-10-19T05:13:52;100656.16;;;8.65;57.95
50292;BME280;36190;54.980;73.388;2023-10-19T05:16:21;100655.59;;;8.71;57.20
50292;BME280;36190;54.980;73.388;2023-10-19T05:18:48;100653.59;;;8.73;56.54
50292;BME280;36190;54.980;73.388;2023-10-19T05:21:16;100672.75;;;8.77;56.37
50292;BME280;36190;54.980;73.388;2023-10-19T05:23:43;100654.50;;;8.82;56.21
50292;BME280;36190;54.980;73.388;2023-10-19T05:26:11;100665.22;;;8.90;55.91
50292;BME280;36190;54.980;73.388;2023-10-19T05:28:42;100672.34;;;9.00;55.31
50292;BME280;36190;54.980;73.388;2023-10-19T05:31:09;100664.56;;;9.06;55.09
50292;BME280;36190;54.980;73.388;2023-10-19T05:33:39;100666.31;;;9.16;54.38
50292;BME280;36190;54.980;73.388;2023-10-19T05:36:07;100677.03;;;9.24;53.92
50292;BME280;36190;54.980;73.388;2023-10-19T05:38:34;100691.88;;;9.27;52.71
50292;BME280;36190;54.980;73.388;2023-10-19T05:41:02;100684.34;;;9.22;52.40
50292;BME280;36190;54.980;73.388;2023-10-19T05:43:30;100677.03;;;9.24;52.55
50292;BME280;36190;54.980;73.388;2023-10-19T05:45:59;100688.38;;;9.26;52.41
50292;BME280;36190;54.980;73.388;2023-10-19T05:48:26;100681.78;;;9.30;52.00
50292;BME280;36190;54.980;73.388;2023-10-19T05:50:55;100675.84;;;9.37;51.68
50292;BME280;36190;54.980;73.388;2023-10-19T05:53:23;100708.84;;;9.44;51.17
50292;BME280;36190;54.980;73.388;2023-10-19T05:55:51;100685.72;;;9.44;50.31
50292;BME280;36190;54.980;73.388;2023-10-19T05:58:18;100699.34;;;9.41;50.22
50292;BME280;36190;54.980;73.388;2023-10-19T06:00:46;100722.31;;;9.42;49.71
50292;BME280;36190;54.980;73.388;2023-10-19T06:03:15;100710.81;;;9.42;49.57
50292;BME280;36190;54.980;73.388;2023-10-19T06:05:43;100712.50;;;9.43;49.62
50292;BME280;36190;54.980;73.388;2023-10-19T06:08:12;100691.72;;;9.46;49.08
50292;BME280;36190;54.980;73.388;2023-10-19T06:10:40;100711.50;;;9.44;48.72
50292;BME280;36190;54.980;73.388;2023-10-19T06:13:08;100717.00;;;9.42;48.76
50292;BME280;36190;54.980;73.388;2023-10-19T06:15:36;100718.66;;;9.43;48.92
50292;BME280;36190;54.980;73.388;2023-10-19T06:18:04;100710.22;;;9.48;48.99
50292;BME280;36190;54.980;73.388;2023-10-19T06:20:32;100715.59;;;9.56;48.93
50292;BME280;36190;54.980;73.388;2023-10-19T06:22:59;100715.69;;;9.65;48.81
50292;BME280;36190;54.980;73.388;2023-10-19T06:25:32;100711.25;;;9.73;48.72
50292;BME280;36190;54.980;73.388;2023-10-19T06:28:01;100711.09;;;9.75;48.05
50292;BME280;36190;54.980;73.388;2023-10-19T06:30:29;100712.75;;;9.76;47.63
50292;BME280;36190;54.980;73.388;2023-10-19T06:32:58;100739.59;;;9.74;46.66
50292;BME280;36190;54.980;73.388;2023-10-19T06:35:27;100730.19;;;9.70;46.09
50292;BME280;36190;54.980;73.388;2023-10-19T06:37:57;100725.72;;;9.71;46.37
50292;BME280;36190;54.980;73.388;2023-10-19T06:40:26;100741.41;;;9.74;45.91
50292;BME280;36190;54.980;73.388;2023-10-19T06:42:56;100727.94;;;9.75;45.82
50292;BME280;36190;54.980;73.388;2023-10-19T06:45:25;100739.13;;;9.79;45.79
50292;BME280;36190;54.980;73.388;2023-10-19T06:47:53;100735.31;;;9.82;44.75
50292;BME280;36190;54.980;73.388;2023-10-19T06:50:22;100772.91;;;9.79;44.26
50292;BME280;36190;54.980;73.388;2023-10-19T06:52:50;100739.06;;;9.71;44.17
50292;BME280;36190;54.980;73.388;2023-10-19T06:55:18;100734.94;;;9.76;44.39
50292;BME280;36190;54.980;73.388;2023-10-19T06:57:48;100745.78;;;9.83;44.29
50292;BME280;36190;54.980;73.388;2023-10-19T07:00:18;100745.19;;;9.89;43.98
50292;BME280;36190;54.980;73.388;2023-10-19T07:02:47;100759.94;;;10.02;44.09
50292;BME280;36190;54.980;73.388;2023-10-19T07:05:17;100745.69;;;10.11;43.76
50292;BME280;36190;54.980;73.388;2023-10-19T07:07:48;100755.03;;;10.15;43.32
50292;BME280;36190;54.980;73.388;2023-10-19T07:10:18;100769.88;;;10.18;43.41
50292;BME280;36190;54.980;73.388;2023-10-19T07:12:47;100756.22;;;10.21;43.55
50292;BME280;36190;54.980;73.388;2023-10-19T07:15:17;100767.41;;;10.25;43.36
50292;BME280;36190;54.980;73.388;2023-10-19T07:17:48;100753.78;;;10.28;43.02
50292;BME280;36190;54.980;73.388;2023-10-19T07:20:18;100760.69;;;10.39;42.67
50292;BME280;36190;54.980;73.388;2023-10-19T07:22:51;100773.25;;;10.47;42.43
50292;BME280;36190;54.980;73.388;2023-10-19T07:25:18;100752.44;;;10.50;42.16
50292;BME280;36190;54.980;73.388;2023-10-19T07:27:48;100768.97;;;10.54;42.03
50292;BME280;36190;54.980;73.388;2023-10-19T07:30:18;100770.25;;;10.50;41.95
50292;BME280;36190;54.980;73.388;2023-10-19T07:32:48;100759.63;;;10.58;42.30
50292;BME280;36190;54.980;73.388;2023-10-19T07:35:20;100794.69;;;10.63;42.18
50292;BME280;36190;54.980;73.388;2023-10-19T07:37:51;100763.50;;;10.64;42.51
50292;BME280;36190;54.980;73.388;2023-10-19T07:40:19;100766.22;;;10.72;42.57
50292;BME280;36190;54.980;73.388;2023-10-19T07:42:48;100766.91;;;10.82;42.49
50292;BME280;36190;54.980;73.388;2023-10-19T07:45:19;100764.78;;;10.94;42.18
50292;BME280;36190;54.980;73.388;2023-10-19T07:47:47;100772.31;;;10.99;42.00
50292;BME280;36190;54.980;73.388;2023-10-19T07:50:15;100781.81;;;10.93;41.73
50292;BME280;36190;54.980;73.388;2023-10-19T07:52:43;100771.09;;;10.85;41.74
50292;BME280;36190;54.980;73.388;2023-10-19T07:55:12;100802.28;;;10.84;41.94
50292;BME280;36190;54.980;73.388;2023-10-19T07:57:40;100782.09;;;10.82;42.03
50292;BME280;36190;54.980;73.388;2023-10-19T08:00:09;100780.41;;;10.81;42.33
50292;BME280;36190;54.980;73.388;2023-10-19T08:02:41;100778.78;;;10.88;42.29
50292;BME280;36190;54.980;73.388;2023-10-19T08:05:11;100814.19;;;10.98;42.22
50292;BME280;36190;54.980;73.388;2023-10-19T08:07:39;100808.53;;;11.02;42.31
50292;BME280;36190;54.980;73.388;2023-10-19T08:10:09;100792.84;;;11.07;42.44
50292;BME280;36190;54.980;73.388;2023-10-19T08:12:37;100813.28;;;11.16;42.36
50292;BME280;36190;54.980;73.388;2023-10-19T08:15:08;100788.75;;;11.21;41.85
50292;BME280;36190;54.980;73.388;2023-10-19T08:17:37;100805.78;;;11.28;41.38
50292;BME280;36190;54.980;73.388;2023-10-19T08:20:08;100793.25;;;11.28;41.03
50292;BME280;36190;54.980;73.388;2023-10-19T08:22:41;100795.59;;;11.32;41.21
50292;BME280;36190;54.980;73.388;2023-10-19T08:25:09;100824.69;;;11.35;41.15
50292;BME280;36190;54.980;73.388;2023-10-19T08:27:40;100824.84;;;11.33;41.16
50292;BME280;36190;54.980;73.388;2023-10-19T08:30:10;100816.94;;;11.23;41.11
50292;BME280;36190;54.980;73.388;2023-10-19T08:32:38;100824.16;;;11.23;41.44
50292;BME280;36190;54.980;73.388;2023-10-19T08:35:09;100828.63;;;11.22;41.59
50292;BME280;36190;54.980;73.388;2023-10-19T08:37:37;100827.13;;;11.20;41.57
50292;BME280;36190;54.980;73.388;2023-10-19T08:40:07;100832.47;;;11.20;41.62
50292;BME280;36190;54.980;73.388;2023-10-19T08:42:34;100814.63;;;11.28;41.70
50292;BME280;36190;54.980;73.388;2023-10-19T08:45:02;100822.81;;;11.35;41.43
50292;BME280;36190;54.980;73.388;2023-10-19T08:47:35;100826.72;;;11.41;41.25
50292;BME280;36190;54.980;73.388;2023-10-19T08:50:04;100831.72;;;11.44;41.01
50292;BME280;36190;54.980;73.388;2023-10-19T08:52:34;100836.38;;;11.42;40.72
50292;BME280;36190;54.980;73.388;2023-10-19T08:55:04;100829.03;;;11.44;40.86
50292;BME280;36190;54.980;73.388;2023-10-19T08:57:32;100826.22;;;11.46;40.92
50292;BME280;36190;54.980;73.388;2023-10-19T08:59:59;100825.03;;;11.48;41.15
50292;BME280;36190;54.980;73.388;2023-10-19T09:02:32;100849.78;;;11.50;41.33
50292;BME280;36190;54.980;73.388;2023-10-19T09:05:06;100844.25;;;11.60;41.42
50292;BME280;36190;54.980;73.388;2023-10-19T09:07:35;100833.78;;;11.67;41.13
50292;BME280;36190;54.980;73.388;2023-10-19T09:10:03;100849.81;;;11.67;40.77
50292;BME280;36190;54.980;73.388;2023-10-19T09:12:31;100839.44;;;11.64;40.93
50292;BME280;36190;54.980;73.388;2023-10-19T09:14:59;100839.78;;;11.69;41.05
50292;BME280;36190;54.980;73.388;2023-10-19T09:17:30;100841.81;;;11.75;41.08
50292;BME280;36190;54.980;73.388;2023-10-19T09:19:57;100853.50;;;11.74;40.72
50292;BME280;36190;54.980;73.388;2023-10-19T09:22:36;100847.47;;;11.72;40.59
50292;BME280;36190;54.980;73.388;2023-10-19T09:25:10;100869.84;;;11.71;40.54
50292;BME280;36190;54.980;73.388;2023-10-19T09:27:37;100855.66;;;11.71;40.62
50292;BME280;36190;54.980;73.388;2023-10-19T09:30:08;100859.16;;;11.71;40.86
50292;BME280;36190;54.980;73.388;2023-10-19T09:32:36;100855.47;;;11.72;40.94
50292;BME280;36190;54.980;73.388;2023-10-19T09:35:05;100854.00;;;11.78;41.02
50292;BME280;36190;54.980;73.388;2023-10-19T09:37:36;100861.03;;;11.87;40.52
50292;BME280;36190;54.980;73.388;2023-10-19T09:40:06;100868.22;;;11.95;40.61
50292;BME280;36190;54.980;73.388;2023-10-19T09:42:38;100887.31;;;12.17;40.36
50292;BME280;36190;54.980;73.388;2023-10-19T09:45:12;100866.75;;;12.34;40.19
50292;BME280;36190;54.980;73.388;2023-10-19T09:47:41;100878.13;;;12.28;39.58
50292;BME280;36190;54.980;73.388;2023-10-19T09:50:11;100867.75;;;12.16;39.55
50292;BME280;36190;54.980;73.388;2023-10-19T09:52:40;100876.63;;;12.08;39.82
50292;BME280;36190;54.980;73.388;2023-10-19T09:55:12;100865.06;;;12.08;39.83
50292;BME280;36190;54.980;73.388;2023-10-19T09:57:48;100874.09;;;12.15;39.81
50292;BME280;36190;54.980;73.388;2023-10-19T10:00:18;100887.31;;;12.17;39.98
50292;BME280;36190;54.980;73.388;2023-10-19T10:02:50;100883.00;;;12.24;39.91
50292;BME280;36190;54.980;73.388;2023-10-19T10:05:48;100888.66;;;12.29;39.96
50292;BME280;36190;54.980;73.388;2023-10-19T10:08:32;100899.34;;;12.29;39.69
50292;BME280;36190;54.980;73.388;2023-10-19T10:11:20;100894.34;;;12.18;39.67
50292;BME280;36190;54.980;73.388;2023-10-19T10:13:49;100895.00;;;12.03;39.52
50292;BME280;36190;54.980;73.388;2023-10-19T10:16:22;100899.34;;;12.04;39.83
50292;BME280;36190;54.980;73.388;2023-10-19T10:18:50;100896.69;;;12.21;39.58
50292;BME280;36190;54.980;73.388;2023-10-19T10:21:19;100895.34;;;12.42;39.35
50292;BME280;36190;54.980;73.388;2023-10-19T10:23:51;100898.69;;;12.52;39.06
50292;BME280;36190;54.980;73.388;2023-10-19T10:26:21;100902.03;;;12.54;38.75
50292;BME280;36190;54.980;73.388;2023-10-19T10:29:08;100895.00;;;12.45;37.43
50292;BME280;36190;54.980;73.388;2023-10-19T10:31:41;100918.56;;;12.16;36.91
50292;BME280;36190;54.980;73.388;2023-10-19T10:34:09;100913.69;;;11.95;37.01
50292;BME280;36190;54.980;73.388;2023-10-19T10:36:59;100915.19;;;11.97;37.07
50292;BME280;36190;54.980;73.388;2023-10-19T10:39:30;100969.97;;;11.93;36.53
50292;BME280;36190;54.980;73.388;2023-10-19T10:41:58;100926.34;;;11.76;36.94
50292;BME280;36190;54.980;73.388;2023-10-19T10:44:47;100919.63;;;11.72;37.19
50292;BME280;36190;54.980;73.388;2023-10-19T10:47:19;100922.81;;;11.76;37.61
50292;BME280;36190;54.980;73.388;2023-10-19T10:49:49;100935.72;;;11.89;37.65
50292;BME280;36190;54.980;73.388;2023-10-19T10:52:25;100924.22;;;11.96;37.54
50292;BME280;36190;54.980;73.388;2023-10-19T10:54:55;100927.91;;;11.95;37.49
50292;BME280;36190;54.980;73.388;2023-10-19T10:57:23;100953.13;;;12.01;37.28
50292;BME280;36190;54.980;73.388;2023-10-19T11:00:04;100939.09;;;11.91;37.14
50292;BME280;36190;54.980;73.388;2023-10-19T11:02:33;100934.22;;;11.78;37.11
50292;BME280;36190;54.980;73.388;2023-10-19T11:05:01;100929.50;;;11.72;37.31
50292;BME280;36190;54.980;73.388;2023-10-19T11:07:29;100926.66;;;11.65;37.22
50292;BME280;36190;54.980;73.388;2023-10-19T11:09:59;100931.28;;;11.54;37.68
50292;BME280;36190;54.980;73.388;2023-10-19T11:12:27;100934.16;;;11.26;37.95
50292;BME280;36190;54.980;73.388;2023-10-19T11:14:55;100925.59;;;10.88;38.62
50292;BME280;36190;54.980;73.388;2023-10-19T11:17:25;100935.72;;;10.58;39.09
50292;BME280;36190;54.980;73.388;2023-10-19T11:19:56;100939.00;;;10.34;39.79
50292;BME280;36190;54.980;73.388;2023-10-19T11:22:24;100937.19;;;10.16;40.01
50292;BME280;36190;54.980;73.388;2023-10-19T11:24:52;100950.91;;;10.03;40.11
50292;BME280;36190;54.980;73.388;2023-10-19T11:27:26;100926.41;;;9.89;40.20
50292;BME280;36190;54.980;73.388;2023-10-19T11:29:55;100951.19;;;9.82;40.16
50292;BME280;36190;54.980;73.388;2023-10-19T11:32:23;100954.97;;;9.79;40.36
50292;BME280;36190;54.980;73.388;2023-10-19T11:34:53;100958.22;;;9.73;40.58
50292;BME280;36190;54.980;73.388;2023-10-19T11:37:21;100962.59;;;9.64;40.55
50292;BME280;36190;54.980;73.388;2023-10-19T11:39:49;100963.34;;;9.56;40.79
50292;BME280;36190;54.980;73.388;2023-10-19T11:42:17;100956.25;;;9.47;40.70
50292;BME280;36190;54.980;73.388;2023-10-19T11:44:47;100963.16;;;9.40;40.92
50292;BME280;36190;54.980;73.388;2023-10-19T11:47:14;100956.41;;;9.35;41.04
50292;BME280;36190;54.980;73.388;2023-10-19T11:49:42;100961.63;;;9.27;41.39
50292;BME280;36190;54.980;73.388;2023-10-19T11:52:09;100967.03;;;9.17;41.34
50292;BME280;36190;54.980;73.388;2023-10-19T11:54:37;100967.47;;;9.13;41.64
50292;BME280;36190;54.980;73.388;2023-10-19T11:57:05;100975.16;;;9.06;41.79
50292;BME280;36190;54.980;73.388;2023-10-19T11:59:32;100974.06;;;8.99;41.92
50292;BME280;36190;54.980;73.388;2023-10-19T12:02:01;100973.09;;;8.90;41.97
50292;BME280;36190;54.980;73.388;2023-10-19T12:04:32;100975.63;;;8.82;42.07
50292;BME280;36190;54.980;73.388;2023-10-19T12:07:02;100969.19;;;8.74;42.29
50292;BME280;36190;54.980;73.388;2023-10-19T12:09:31;100976.91;;;8.68;42.55
50292;BME280;36190;54.980;73.388;2023-10-19T12:11:59;100975.63;;;8.62;42.75
50292;BME280;36190;54.980;73.388;2023-10-19T12:14:27;100978.72;;;8.57;43.02
50292;BME280;36190;54.980;73.388;2023-10-19T12:16:54;100981.22;;;8.49;43.12
50292;BME280;36190;54.980;73.388;2023-10-19T12:19:23;100989.91;;;8.41;43.35
50292;BME280;36190;54.980;73.388;2023-10-19T12:21:51;100992.69;;;8.30;43.67
50292;BME280;36190;54.980;73.388;2023-10-19T12:24:18;100995.47;;;8.18;43.95
50292;BME280;36190;54.980;73.388;2023-10-19T12:26:47;100996.31;;;8.09;44.04
50292;BME280;36190;54.980;73.388;2023-10-19T12:29:14;100996.16;;;8.01;44.35
50292;BME280;36190;54.980;73.388;2023-10-19T12:31:46;100995.69;;;7.95;44.37
50292;BME280;36190;54.980;73.388;2023-10-19T12:34:14;101001.31;;;7.92;44.62
50292;BME280;36190;54.980;73.388;2023-10-19T12:36:44;101005.19;;;7.88;44.72
50292;BME280;36190;54.980;73.388;2023-10-19T12:39:12;101008.00;;;7.87;44.74
50292;BME280;36190;54.980;73.388;2023-10-19T12:42:01;101009.09;;;7.84;44.66
50292;BME280;36190;54.980;73.388;2023-10-19T12:44:29;100999.47;;;7.83;44.71
50292;BME280;36190;54.980;73.388;2023-10-19T12:47:04;101005.75;;;7.82;44.77
50292;BME280;36190;54.980;73.388;2023-10-19T12:49:35;101008.66;;;7.79;44.90
50292;BME280;36190;54.980;73.388;2023-10-19T12:52:04;101009.63;;;7.78;45.01
50292;BME280;36190;54.980;73.388;2023-10-19T12:54:33;101019.44;;;7.77;44.93
50292;BME280;36190;54.980;73.388;2023-10-19T12:57:02;101024.88;;;7.76;45.17
50292;BME280;36190;54.980;73.388;2023-10-19T12:59:33;101014.22;;;7.66;45.26
50292;BME280;36190;54.980;73.388;2023-10-19T13:02:03;101030.72;;;7.69;45.38